CDT,Max TemperatureF,Mean TemperatureF,Min TemperatureF,Max Dew PointF,MeanDew PointF,Min DewpointF,Max Humidity, Mean Humidity, Min Humidity, Max Sea Level PressureIn, Mean Sea Level PressureIn, Min Sea Level PressureIn, Max VisibilityMiles, Mean VisibilityMiles, Min VisibilityMiles, Max Wind SpeedMPH, Mean Wind SpeedMPH, Max Gust SpeedMPH,PrecipitationIn, CloudCover, Events, WindDirDegrees
2013-9-1,80,70,59,70,61,55,100,78,42,29.85,29.77,29.72,10,9,0,15,4,22,0.02,4,Fog-Rain,289
2013-9-2,66,60,53,59,51,48,88,74,56,30.03,29.97,29.86,10,10,10,12,7,20,0.00,4,,342
2013-9-3,73,58,42,52,47,43,100,75,36,30.09,30.03,29.98,10,10,7,12,2,20,0.00,0,,264
2013-9-4,73,62,50,61,56,46,100,79,60,30.18,30.08,29.99,10,10,10,10,3,,0.00,2,,47
2013-9-5,71,58,44,57,48,45,100,71,38,30.32,30.26,30.19,10,10,10,8,4,,0.00,1,,96
2013-9-6,84,64,44,64,55,43,100,72,48,30.24,30.09,29.94,10,10,7,10,3,,0.00,0,,193
2013-9-7,86,75,64,70,65,59,94,77,51,30.07,29.93,29.89,10,10,5,16,3,22,0.28,4,Rain,122
2013-9-8,73,63,53,57,53,46,94,71,41,30.14,30.08,30.00,10,10,10,15,6,21,0.00,2,Rain,78
2013-9-9,84,72,60,73,66,55,94,80,61,30.00,29.84,29.71,10,9,5,14,3,20,0.00,5,,169
2013-9-10,89,78,68,68,64,61,100,62,38,29.96,29.86,29.74,10,10,2,14,7,16,0.22,2,Rain,268
2013-9-11,82,71,59,68,62,55,100,74,39,30.02,29.98,29.93,10,10,10,14,5,18,0.00,2,Rain,260
2013-9-12,71,61,51,59,50,43,100,70,38,30.18,30.05,29.97,10,10,10,15,4,21,0.00,5,,354
2013-9-13,64,53,42,46,41,36,100,71,42,30.25,30.20,30.14,10,10,10,9,4,,0.00,0,,11
2013-9-14,69,52,35,50,43,36,100,69,33,30.16,30.07,29.98,10,10,2,13,3,20,0.00,1,Rain,212
2013-9-15,64,54,44,55,51,39,100,87,68,30.31,30.08,29.99,10,9,3,14,3,20,0.40,7,Rain,37
2013-9-16,60,48,37,43,40,36,100,74,42,30.44,30.38,30.31,10,10,5,9,4,,0.00,1,,57
2013-9-17,66,50,33,54,45,34,100,82,52,30.37,30.26,30.11,10,9,0,13,3,16,0.00,3,Fog-Rain,158
2013-9-18,77,66,55,64,60,54,100,85,65,30.10,29.96,29.85,10,8,4,10,6,,0.22,6,Rain,170
2013-9-19,82,73,64,72,67,63,100,86,62,29.86,29.79,29.70,10,8,2,16,6,23,0.03,5,Rain,190
2013-9-20,69,62,55,66,59,50,100,81,56,29.82,29.74,29.69,10,10,7,18,8,24,0.01,7,Rain,270
2013-9-21,57,50,42,50,44,37,100,77,55,29.99,29.89,29.82,10,10,10,16,7,21,0.00,4,,326
2013-9-22,59,46,33,43,39,34,100,78,48,30.11,30.06,29.99,10,10,7,8,2,,0.00,1,,86
2013-9-23,64,48,33,48,42,34,100,80,52,30.15,30.10,30.06,10,9,1,10,2,,0.00,1,,134
2013-9-24,69,53,37,54,47,37,100,83,49,30.09,30.04,30.00,10,6,0,9,1,,0.00,2,Fog,105
2013-9-25,68,54,41,55,47,41,100,87,49,30.05,30.02,29.98,10,4,0,7,1,,0.00,5,Fog,99
2013-9-26,73,57,41,55,50,41,100,82,38,30.10,30.07,30.03,10,5,0,12,2,,0.00,4,Fog,139
2013-9-27,78,60,42,59,49,43,100,74,32,30.15,30.10,30.04,10,6,0,14,3,18,0.00,3,Fog,155
2013-9-28,78,61,44,64,52,43,100,78,41,30.05,29.93,29.77,10,9,2,23,6,30,0.16,3,Rain,205
2013-9-29,69,54,39,50,45,39,100,74,35,30.05,29.99,29.93,10,9,0,12,4,16,0.00,1,Fog,215
2013-9-30,71,56,41,46,44,37,100,69,35,29.98,29.88,29.78,10,10,10,16,5,25,0.00,0,,183